Terminal Aerodrome Forecast
Issued by NWS Brownsville, TX

Home | Current Version | Previous Version | Text Only | Print | Product List | Glossary On
Versions: 1 2 3 4 5 6 7 8 9 10 11 12 13 14 15 16 17 18
000
FTUS44 KBRO 250500
TAFBRO
TAF
KBRO 250527Z 2506/2606 15003KT P6SM FEW007 OVC018
     FM250800 13004KT P6SM OVC007
      TEMPO 2511/2513 4SM BR
     FM251600 07010KT P6SM OVC025
     FM251900 11011KT P6SM BKN035
     FM252300 12008KT P6SM SCT040
     FM260300 13009KT P6SM BKN015=

USA.gov is the U.S. government's official web portal to all federal, state and local government web resources and services.